sensor_id;sensor_type;location;lat;lon;timestamp;P1;durP1;ratioP1;P2;durP2;ratioP2
71296;SDS011;59082;50.658;4.608;2023-05-07T00:02:06;6.20;;;3.85;;
71296;SDS011;59082;50.658;4.608;2023-05-07T00:04:32;10.73;;;4.90;;
71296;SDS011;59082;50.658;4.608;2023-05-07T00:07:02;10.88;;;4.55;;
71296;SDS011;59082;50.658;4.608;2023-05-07T00:09:29;7.25;;;4.13;;
71296;SDS011;59082;50.658;4.608;2023-05-07T00:12:03;13.68;;;4.18;;
71296;SDS011;59082;50.658;4.608;2023-05-07T00:14:28;6.63;;;4.30;;
71296;SDS011;59082;50.658;4.608;2023-05-07T00:16:54;7.00;;;3.75;;
71296;SDS011;59082;50.658;4.608;2023-05-07T00:19:20;6.80;;;3.47;;
71296;SDS011;59082;50.658;4.608;2023-05-07T00:21:45;6.90;;;3.33;;
71296;SDS011;59082;50.658;4.608;2023-05-07T00:24:12;11.30;;;3.58;;
71296;SDS011;59082;50.658;4.608;2023-05-07T00:26:39;6.35;;;3.65;;
71296;SDS011;59082;50.658;4.608;2023-05-07T00:29:04;9.10;;;3.97;;
71296;SDS011;59082;50.658;4.608;2023-05-07T00:31:30;6.38;;;2.90;;
71296;SDS011;59082;50.658;4.608;2023-05-07T00:33:57;9.87;;;3.67;;
71296;SDS011;59082;50.658;4.608;2023-05-07T00:36:22;10.48;;;4.15;;
71296;SDS011;59082;50.658;4.608;2023-05-07T00:38:47;9.23;;;2.83;;
71296;SDS011;59082;50.658;4.608;2023-05-07T00:41:13;7.83;;;3.57;;
71296;SDS011;59082;50.658;4.608;2023-05-07T00:43:38;6.07;;;3.20;;
71296;SDS011;59082;50.658;4.608;2023-05-07T00:46:03;9.07;;;3.37;;
71296;SDS011;59082;50.658;4.608;2023-05-07T00:48:29;8.00;;;3.47;;
71296;SDS011;59082;50.658;4.608;2023-05-07T00:50:55;7.97;;;3.45;;
71296;SDS011;59082;50.658;4.608;2023-05-07T00:53:21;5.80;;;2.70;;
71296;SDS011;59082;50.658;4.608;2023-05-07T00:55:46;6.80;;;2.70;;
71296;SDS011;59082;50.658;4.608;2023-05-07T00:58:12;6.40;;;3.60;;
71296;SDS011;59082;50.658;4.608;2023-05-07T01:00:37;11.73;;;3.37;;
71296;SDS011;59082;50.658;4.608;2023-05-07T01:03:03;6.67;;;4.07;;
71296;SDS011;59082;50.658;4.608;2023-05-07T01:05:29;6.38;;;3.03;;
71296;SDS011;59082;50.658;4.608;2023-05-07T01:07:55;7.25;;;2.60;;
71296;SDS011;59082;50.658;4.608;2023-05-07T01:10:22;8.77;;;3.20;;
71296;SDS011;59082;50.658;4.608;2023-05-07T01:12:47;5.07;;;2.67;;
71296;SDS011;59082;50.658;4.608;2023-05-07T01:15:13;6.28;;;3.10;;
71296;SDS011;59082;50.658;4.608;2023-05-07T01:17:39;11.47;;;3.50;;
71296;SDS011;59082;50.658;4.608;2023-05-07T01:20:05;6.93;;;3.13;;
71296;SDS011;59082;50.658;4.608;2023-05-07T01:22:35;9.20;;;3.27;;
71296;SDS011;59082;50.658;4.608;2023-05-07T01:25:02;7.68;;;2.67;;
71296;SDS011;59082;50.658;4.608;2023-05-07T01:27:27;9.43;;;2.95;;
71296;SDS011;59082;50.658;4.608;2023-05-07T01:29:53;5.63;;;2.50;;
71296;SDS011;59082;50.658;4.608;2023-05-07T01:32:19;10.30;;;3.33;;
71296;SDS011;59082;50.658;4.608;2023-05-07T01:34:46;4.63;;;2.83;;
71296;SDS011;59082;50.658;4.608;2023-05-07T01:37:13;8.73;;;4.57;;
71296;SDS011;59082;50.658;4.608;2023-05-07T01:39:39;9.27;;;4.38;;
71296;SDS011;59082;50.658;4.608;2023-05-07T01:42:04;6.47;;;3.70;;
71296;SDS011;59082;50.658;4.608;2023-05-07T01:44:30;7.90;;;3.00;;
71296;SDS011;59082;50.658;4.608;2023-05-07T01:46:55;6.90;;;2.90;;
71296;SDS011;59082;50.658;4.608;2023-05-07T01:49:21;5.25;;;3.03;;
71296;SDS011;59082;50.658;4.608;2023-05-07T01:51:47;7.57;;;3.17;;
71296;SDS011;59082;50.658;4.608;2023-05-07T01:54:13;7.20;;;3.57;;
71296;SDS011;59082;50.658;4.608;2023-05-07T01:56:39;8.38;;;3.28;;
71296;SDS011;59082;50.658;4.608;2023-05-07T01:59:04;8.67;;;3.83;;
71296;SDS011;59082;50.658;4.608;2023-05-07T02:01:30;8.40;;;3.50;;
71296;SDS011;59082;50.658;4.608;2023-05-07T02:03:55;5.55;;;2.95;;
71296;SDS011;59082;50.658;4.608;2023-05-07T02:06:21;10.37;;;3.60;;
71296;SDS011;59082;50.658;4.608;2023-05-07T02:08:46;5.00;;;2.83;;
71296;SDS011;59082;50.658;4.608;2023-05-07T02:11:12;7.10;;;3.95;;
71296;SDS011;59082;50.658;4.608;2023-05-07T02:13:37;9.13;;;3.30;;
71296;SDS011;59082;50.658;4.608;2023-05-07T02:16:02;8.00;;;3.17;;
71296;SDS011;59082;50.658;4.608;2023-05-07T02:18:28;9.37;;;3.93;;
71296;SDS011;59082;50.658;4.608;2023-05-07T02:20:53;8.20;;;4.13;;
71296;SDS011;59082;50.658;4.608;2023-05-07T02:23:19;7.47;;;3.97;;
71296;SDS011;59082;50.658;4.608;2023-05-07T02:25:44;7.13;;;4.17;;
71296;SDS011;59082;50.658;4.608;2023-05-07T02:28:10;7.82;;;4.45;;
71296;SDS011;59082;50.658;4.608;2023-05-07T02:30:36;10.27;;;5.50;;
71296;SDS011;59082;50.658;4.608;2023-05-07T02:33:02;9.27;;;3.90;;
71296;SDS011;59082;50.658;4.608;2023-05-07T02:35:27;6.70;;;4.30;;
71296;SDS011;59082;50.658;4.608;2023-05-07T02:37:52;12.03;;;4.20;;
71296;SDS011;59082;50.658;4.608;2023-05-07T02:40:18;8.33;;;3.57;;
71296;SDS011;59082;50.658;4.608;2023-05-07T02:42:43;6.90;;;3.43;;
71296;SDS011;59082;50.658;4.608;2023-05-07T02:45:09;10.50;;;4.20;;
71296;SDS011;59082;50.658;4.608;2023-05-07T02:47:34;7.00;;;3.83;;
71296;SDS011;59082;50.658;4.608;2023-05-07T02:50:00;7.27;;;4.17;;
71296;SDS011;59082;50.658;4.608;2023-05-07T02:52:25;7.93;;;4.38;;
71296;SDS011;59082;50.658;4.608;2023-05-07T02:54:50;10.67;;;4.37;;
71296;SDS011;59082;50.658;4.608;2023-05-07T02:57:16;7.27;;;3.80;;
71296;SDS011;59082;50.658;4.608;2023-05-07T02:59:41;7.17;;;3.53;;
71296;SDS011;59082;50.658;4.608;2023-05-07T03:02:07;10.20;;;4.05;;
71296;SDS011;59082;50.658;4.608;2023-05-07T03:04:32;7.33;;;3.83;;
71296;SDS011;59082;50.658;4.608;2023-05-07T03:06:58;7.40;;;3.63;;
71296;SDS011;59082;50.658;4.608;2023-05-07T03:09:23;5.97;;;4.00;;
71296;SDS011;59082;50.658;4.608;2023-05-07T03:11:48;8.18;;;4.53;;
71296;SDS011;59082;50.658;4.608;2023-05-07T03:14:14;8.03;;;4.87;;
71296;SDS011;59082;50.658;4.608;2023-05-07T03:16:39;11.93;;;4.60;;
71296;SDS011;59082;50.658;4.608;2023-05-07T03:19:05;6.18;;;3.72;;
71296;SDS011;59082;50.658;4.608;2023-05-07T03:21:30;7.20;;;3.50;;
71296;SDS011;59082;50.658;4.608;2023-05-07T03:23:58;11.05;;;4.65;;
71296;SDS011;59082;50.658;4.608;2023-05-07T03:26:24;9.63;;;5.20;;
71296;SDS011;59082;50.658;4.608;2023-05-07T03:28:50;9.93;;;5.07;;
71296;SDS011;59082;50.658;4.608;2023-05-07T03:31:15;9.53;;;5.33;;
71296;SDS011;59082;50.658;4.608;2023-05-07T03:33:56;10.73;;;5.20;;
71296;SDS011;59082;50.658;4.608;2023-05-07T03:36:22;9.45;;;5.43;;
71296;SDS011;59082;50.658;4.608;2023-05-07T03:38:47;10.68;;;6.65;;
71296;SDS011;59082;50.658;4.608;2023-05-07T03:41:13;9.63;;;6.43;;
71296;SDS011;59082;50.658;4.608;2023-05-07T03:43:39;12.48;;;6.97;;
71296;SDS011;59082;50.658;4.608;2023-05-07T03:46:04;12.47;;;5.93;;
71296;SDS011;59082;50.658;4.608;2023-05-07T03:48:30;13.63;;;6.90;;
71296;SDS011;59082;50.658;4.608;2023-05-07T03:50:55;11.10;;;6.73;;
71296;SDS011;59082;50.658;4.608;2023-05-07T03:53:21;15.85;;;7.15;;
71296;SDS011;59082;50.658;4.608;2023-05-07T03:55:46;10.13;;;6.17;;
71296;SDS011;59082;50.658;4.608;2023-05-07T03:58:12;11.40;;;7.00;;
71296;SDS011;59082;50.658;4.608;2023-05-07T04:00:37;12.45;;;7.30;;
71296;SDS011;59082;50.658;4.608;2023-05-07T04:03:04;10.37;;;6.50;;
71296;SDS011;59082;50.658;4.608;2023-05-07T04:05:30;14.35;;;7.55;;
71296;SDS011;59082;50.658;4.608;2023-05-07T04:07:57;12.93;;;7.60;;
71296;SDS011;59082;50.658;4.608;2023-05-07T04:10:22;14.25;;;6.88;;
71296;SDS011;59082;50.658;4.608;2023-05-07T04:12:48;10.53;;;7.00;;
71296;SDS011;59082;50.658;4.608;2023-05-07T04:15:13;12.83;;;6.27;;
71296;SDS011;59082;50.658;4.608;2023-05-07T04:17:38;10.13;;;5.70;;
71296;SDS011;59082;50.658;4.608;2023-05-07T04:20:04;10.43;;;6.37;;
71296;SDS011;59082;50.658;4.608;2023-05-07T04:22:29;10.33;;;5.97;;
71296;SDS011;59082;50.658;4.608;2023-05-07T04:24:54;10.97;;;5.97;;
71296;SDS011;59082;50.658;4.608;2023-05-07T04:27:20;11.50;;;6.47;;
71296;SDS011;59082;50.658;4.608;2023-05-07T04:29:46;12.82;;;5.78;;
71296;SDS011;59082;50.658;4.608;2023-05-07T04:32:12;8.13;;;5.53;;
71296;SDS011;59082;50.658;4.608;2023-05-07T04:34:38;11.13;;;5.30;;
71296;SDS011;59082;50.658;4.608;2023-05-07T04:37:03;13.80;;;4.90;;
71296;SDS011;59082;50.658;4.608;2023-05-07T04:39:29;11.57;;;5.85;;
71296;SDS011;59082;50.658;4.608;2023-05-07T04:41:54;8.37;;;5.30;;
71296;SDS011;59082;50.658;4.608;2023-05-07T04:44:20;12.00;;;6.07;;
71296;SDS011;59082;50.658;4.608;2023-05-07T04:46:45;10.02;;;5.57;;
71296;SDS011;59082;50.658;4.608;2023-05-07T04:49:11;11.33;;;5.70;;
71296;SDS011;59082;50.658;4.608;2023-05-07T04:51:36;11.53;;;5.57;;
71296;SDS011;59082;50.658;4.608;2023-05-07T04:54:03;11.75;;;5.93;;
71296;SDS011;59082;50.658;4.608;2023-05-07T04:56:29;10.73;;;5.82;;
71296;SDS011;59082;50.658;4.608;2023-05-07T04:58:55;9.33;;;7.23;;
71296;SDS011;59082;50.658;4.608;2023-05-07T05:01:21;12.65;;;7.18;;
71296;SDS011;59082;50.658;4.608;2023-05-07T05:03:46;13.03;;;6.93;;
71296;SDS011;59082;50.658;4.608;2023-05-07T05:06:12;12.20;;;6.80;;
71296;SDS011;59082;50.658;4.608;2023-05-07T05:08:37;11.63;;;6.63;;
71296;SDS011;59082;50.658;4.608;2023-05-07T05:11:03;9.23;;;6.60;;
71296;SDS011;59082;50.658;4.608;2023-05-07T05:13:29;13.63;;;7.18;;
71296;SDS011;59082;50.658;4.608;2023-05-07T05:15:55;9.43;;;6.90;;
71296;SDS011;59082;50.658;4.608;2023-05-07T05:18:20;13.17;;;6.87;;
71296;SDS011;59082;50.658;4.608;2023-05-07T05:20:46;10.37;;;6.20;;
71296;SDS011;59082;50.658;4.608;2023-05-07T05:23:12;8.87;;;5.80;;
71296;SDS011;59082;50.658;4.608;2023-05-07T05:25:37;9.93;;;5.70;;
71296;SDS011;59082;50.658;4.608;2023-05-07T05:28:04;13.07;;;6.40;;
71296;SDS011;59082;50.658;4.608;2023-05-07T05:30:29;8.98;;;6.47;;
71296;SDS011;59082;50.658;4.608;2023-05-07T05:32:55;9.67;;;6.20;;
71296;SDS011;59082;50.658;4.608;2023-05-07T05:35:20;10.57;;;5.97;;
71296;SDS011;59082;50.658;4.608;2023-05-07T05:37:46;9.60;;;5.10;;
71296;SDS011;59082;50.658;4.608;2023-05-07T05:40:12;6.90;;;5.40;;
71296;SDS011;59082;50.658;4.608;2023-05-07T05:42:38;11.83;;;5.77;;
71296;SDS011;59082;50.658;4.608;2023-05-07T05:45:03;9.43;;;5.47;;
71296;SDS011;59082;50.658;4.608;2023-05-07T05:47:29;7.40;;;5.90;;
71296;SDS011;59082;50.658;4.608;2023-05-07T05:49:54;8.67;;;5.37;;
71296;SDS011;59082;50.658;4.608;2023-05-07T05:52:20;7.03;;;5.07;;
71296;SDS011;59082;50.658;4.608;2023-05-07T05:54:48;8.57;;;4.97;;
71296;SDS011;59082;50.658;4.608;2023-05-07T05:57:14;8.23;;;5.22;;
71296;SDS011;59082;50.658;4.608;2023-05-07T05:59:39;9.40;;;5.30;;
71296;SDS011;59082;50.658;4.608;2023-05-07T06:02:05;7.67;;;4.70;;
71296;SDS011;59082;50.658;4.608;2023-05-07T06:04:31;15.20;;;5.55;;
71296;SDS011;59082;50.658;4.608;2023-05-07T06:06:57;9.37;;;5.03;;
71296;SDS011;59082;50.658;4.608;2023-05-07T06:09:22;8.63;;;4.73;;
71296;SDS011;59082;50.658;4.608;2023-05-07T06:11:47;11.60;;;4.60;;
71296;SDS011;59082;50.658;4.608;2023-05-07T06:14:13;8.40;;;4.37;;
71296;SDS011;59082;50.658;4.608;2023-05-07T06:16:38;6.83;;;4.50;;
71296;SDS011;59082;50.658;4.608;2023-05-07T06:19:04;7.07;;;4.63;;
71296;SDS011;59082;50.658;4.608;2023-05-07T06:21:29;8.93;;;5.10;;
71296;SDS011;59082;50.658;4.608;2023-05-07T06:23:55;10.82;;;4.57;;
71296;SDS011;59082;50.658;4.608;2023-05-07T06:26:21;8.83;;;4.20;;
71296;SDS011;59082;50.658;4.608;2023-05-07T06:28:46;6.50;;;4.57;;
71296;SDS011;59082;50.658;4.608;2023-05-07T06:33:38;6.55;;;3.78;;
71296;SDS011;59082;50.658;4.608;2023-05-07T06:36:04;6.93;;;3.57;;
71296;SDS011;59082;50.658;4.608;2023-05-07T06:38:29;5.88;;;4.10;;
71296;SDS011;59082;50.658;4.608;2023-05-07T06:40:54;6.47;;;4.00;;
71296;SDS011;59082;50.658;4.608;2023-05-07T06:43:24;6.20;;;3.60;;
71296;SDS011;59082;50.658;4.608;2023-05-07T06:45:50;8.75;;;4.80;;
71296;SDS011;59082;50.658;4.608;2023-05-07T06:48:15;8.30;;;4.83;;
71296;SDS011;59082;50.658;4.608;2023-05-07T06:50:44;8.17;;;4.97;;
71296;SDS011;59082;50.658;4.608;2023-05-07T06:53:13;9.88;;;5.07;;
71296;SDS011;59082;50.658;4.608;2023-05-07T06:55:38;7.50;;;5.23;;
71296;SDS011;59082;50.658;4.608;2023-05-07T06:58:04;9.18;;;4.40;;
71296;SDS011;59082;50.658;4.608;2023-05-07T07:00:29;7.50;;;4.57;;
71296;SDS011;59082;50.658;4.608;2023-05-07T07:02:56;5.80;;;4.35;;
71296;SDS011;59082;50.658;4.608;2023-05-07T07:05:21;9.97;;;4.23;;
71296;SDS011;59082;50.658;4.608;2023-05-07T07:07:47;6.82;;;4.65;;
71296;SDS011;59082;50.658;4.608;2023-05-07T07:10:20;9.23;;;4.67;;
71296;SDS011;59082;50.658;4.608;2023-05-07T07:12:46;8.45;;;4.30;;
71296;SDS011;59082;50.658;4.608;2023-05-07T07:15:11;7.75;;;3.42;;
71296;SDS011;59082;50.658;4.608;2023-05-07T07:17:37;7.83;;;3.37;;
71296;SDS011;59082;50.658;4.608;2023-05-07T07:20:03;7.93;;;4.03;;
71296;SDS011;59082;50.658;4.608;2023-05-07T07:22:29;5.27;;;3.20;;
71296;SDS011;59082;50.658;4.608;2023-05-07T07:24:54;5.17;;;3.27;;
71296;SDS011;59082;50.658;4.608;2023-05-07T07:27:20;8.97;;;4.07;;
71296;SDS011;59082;50.658;4.608;2023-05-07T07:29:45;6.00;;;4.10;;
71296;SDS011;59082;50.658;4.608;2023-05-07T07:32:11;9.17;;;3.83;;
71296;SDS011;59082;50.658;4.608;2023-05-07T07:34:36;7.97;;;4.25;;
71296;SDS011;59082;50.658;4.608;2023-05-07T07:37:02;9.10;;;3.50;;
71296;SDS011;59082;50.658;4.608;2023-05-07T07:39:30;7.03;;;4.28;;
71296;SDS011;59082;50.658;4.608;2023-05-07T07:41:56;6.10;;;3.67;;
71296;SDS011;59082;50.658;4.608;2023-05-07T07:44:21;7.03;;;3.40;;
71296;SDS011;59082;50.658;4.608;2023-05-07T07:46:47;5.63;;;3.00;;
71296;SDS011;59082;50.658;4.608;2023-05-07T07:49:12;5.37;;;3.03;;
71296;SDS011;59082;50.658;4.608;2023-05-07T07:51:37;6.93;;;2.53;;
71296;SDS011;59082;50.658;4.608;2023-05-07T07:54:03;5.27;;;2.63;;
71296;SDS011;59082;50.658;4.608;2023-05-07T07:56:28;6.93;;;2.47;;
71296;SDS011;59082;50.658;4.608;2023-05-07T07:58:54;3.73;;;2.40;;
71296;SDS011;59082;50.658;4.608;2023-05-07T08:01:19;4.73;;;2.83;;
71296;SDS011;59082;50.658;4.608;2023-05-07T08:03:44;4.30;;;3.10;;
71296;SDS011;59082;50.658;4.608;2023-05-07T08:06:10;6.78;;;3.45;;
71296;SDS011;59082;50.658;4.608;2023-05-07T08:08:35;6.13;;;2.90;;
71296;SDS011;59082;50.658;4.608;2023-05-07T08:11:01;6.10;;;2.77;;
71296;SDS011;59082;50.658;4.608;2023-05-07T08:13:26;6.10;;;3.43;;
71296;SDS011;59082;50.658;4.608;2023-05-07T08:15:52;6.57;;;3.00;;
71296;SDS011;59082;50.658;4.608;2023-05-07T08:18:17;4.47;;;2.90;;
71296;SDS011;59082;50.658;4.608;2023-05-07T08:20:42;3.80;;;3.13;;
71296;SDS011;59082;50.658;4.608;2023-05-07T08:23:08;5.17;;;3.07;;
71296;SDS011;59082;50.658;4.608;2023-05-07T08:25:33;5.57;;;3.20;;
71296;SDS011;59082;50.658;4.608;2023-05-07T08:27:59;4.70;;;3.30;;
71296;SDS011;59082;50.658;4.608;2023-05-07T08:30:25;4.97;;;3.00;;
71296;SDS011;59082;50.658;4.608;2023-05-07T08:32:50;7.03;;;4.13;;
71296;SDS011;59082;50.658;4.608;2023-05-07T08:35:15;4.90;;;2.90;;
71296;SDS011;59082;50.658;4.608;2023-05-07T08:37:41;5.50;;;3.10;;
71296;SDS011;59082;50.658;4.608;2023-05-07T08:40:06;6.13;;;3.63;;
71296;SDS011;59082;50.658;4.608;2023-05-07T08:42:33;6.50;;;3.38;;
71296;SDS011;59082;50.658;4.608;2023-05-07T08:45:00;6.25;;;3.13;;
71296;SDS011;59082;50.658;4.608;2023-05-07T08:47:32;7.88;;;3.38;;
71296;SDS011;59082;50.658;4.608;2023-05-07T08:49:59;5.87;;;3.67;;
71296;SDS011;59082;50.658;4.608;2023-05-07T08:52:26;5.90;;;3.97;;
71296;SDS011;59082;50.658;4.608;2023-05-07T08:54:51;5.22;;;3.40;;
71296;SDS011;59082;50.658;4.608;2023-05-07T08:57:17;6.13;;;3.30;;
71296;SDS011;59082;50.658;4.608;2023-05-07T08:59:42;5.10;;;3.43;;
71296;SDS011;59082;50.658;4.608;2023-05-07T09:02:08;5.20;;;3.35;;
71296;SDS011;59082;50.658;4.608;2023-05-07T09:04:34;6.30;;;4.13;;
71296;SDS011;59082;50.658;4.608;2023-05-07T09:06:59;6.30;;;3.65;;
71296;SDS011;59082;50.658;4.608;2023-05-07T09:09:31;6.83;;;3.33;;
71296;SDS011;59082;50.658;4.608;2023-05-07T09:11:57;5.15;;;3.67;;
71296;SDS011;59082;50.658;4.608;2023-05-07T09:14:24;6.95;;;4.13;;
71296;SDS011;59082;50.658;4.608;2023-05-07T09:16:51;5.40;;;2.93;;
71296;SDS011;59082;50.658;4.608;2023-05-07T09:19:18;8.13;;;4.47;;
71296;SDS011;59082;50.658;4.608;2023-05-07T09:21:47;4.28;;;3.10;;
71296;SDS011;59082;50.658;4.608;2023-05-07T09:24:14;6.13;;;3.70;;
71296;SDS011;59082;50.658;4.608;2023-05-07T09:26:40;6.40;;;3.10;;
71296;SDS011;59082;50.658;4.608;2023-05-07T09:29:06;5.70;;;3.73;;
71296;SDS011;59082;50.658;4.608;2023-05-07T09:31:32;9.60;;;4.10;;
71296;SDS011;59082;50.658;4.608;2023-05-07T09:33:57;5.60;;;3.50;;
71296;SDS011;59082;50.658;4.608;2023-05-07T09:36:23;5.22;;;2.90;;
71296;SDS011;59082;50.658;4.608;2023-05-07T09:38:49;4.13;;;3.03;;
71296;SDS011;59082;50.658;4.608;2023-05-07T09:41:14;4.57;;;2.47;;
71296;SDS011;59082;50.658;4.608;2023-05-07T09:43:40;4.37;;;3.37;;
71296;SDS011;59082;50.658;4.608;2023-05-07T09:46:11;3.92;;;2.85;;
71296;SDS011;59082;50.658;4.608;2023-05-07T09:48:38;4.13;;;2.83;;
71296;SDS011;59082;50.658;4.608;2023-05-07T09:51:20;3.95;;;3.28;;
71296;SDS011;59082;50.658;4.608;2023-05-07T09:53:47;5.00;;;2.75;;
71296;SDS011;59082;50.658;4.608;2023-05-07T09:56:13;4.68;;;3.35;;
71296;SDS011;59082;50.658;4.608;2023-05-07T09:58:40;4.15;;;3.70;;
71296;SDS011;59082;50.658;4.608;2023-05-07T10:01:06;5.53;;;2.73;;
71296;SDS011;59082;50.658;4.608;2023-05-07T10:03:32;5.53;;;2.58;;
71296;SDS011;59082;50.658;4.608;2023-05-07T10:05:58;3.57;;;2.73;;
71296;SDS011;59082;50.658;4.608;2023-05-07T10:08:24;5.60;;;2.88;;
71296;SDS011;59082;50.658;4.608;2023-05-07T10:10:49;5.00;;;2.93;;
71296;SDS011;59082;50.658;4.608;2023-05-07T10:13:16;3.88;;;3.20;;
71296;SDS011;59082;50.658;4.608;2023-05-07T10:15:41;5.85;;;3.10;;
71296;SDS011;59082;50.658;4.608;2023-05-07T10:18:07;4.57;;;4.17;;
71296;SDS011;59082;50.658;4.608;2023-05-07T10:20:33;4.32;;;2.42;;
71296;SDS011;59082;50.658;4.608;2023-05-07T10:22:59;5.90;;;3.33;;
71296;SDS011;59082;50.658;4.608;2023-05-07T10:25:28;5.38;;;2.55;;
71296;SDS011;59082;50.658;4.608;2023-05-07T10:27:54;4.43;;;2.80;;
71296;SDS011;59082;50.658;4.608;2023-05-07T10:30:27;3.17;;;2.70;;
71296;SDS011;59082;50.658;4.608;2023-05-07T10:33:01;5.22;;;2.33;;
71296;SDS011;59082;50.658;4.608;2023-05-07T10:35:31;5.27;;;2.40;;
71296;SDS011;59082;50.658;4.608;2023-05-07T10:37:57;4.75;;;2.25;;
71296;SDS011;59082;50.658;4.608;2023-05-07T10:40:23;3.10;;;2.72;;
71296;SDS011;59082;50.658;4.608;2023-05-07T10:42:58;3.90;;;2.93;;
71296;SDS011;59082;50.658;4.608;2023-05-07T10:45:25;5.90;;;2.72;;
71296;SDS011;59082;50.658;4.608;2023-05-07T10:50:45;2.97;;;2.10;;
71296;SDS011;59082;50.658;4.608;2023-05-07T10:55:42;4.20;;;2.47;;
71296;SDS011;59082;50.658;4.608;2023-05-07T11:01:02;3.40;;;2.97;;
71296;SDS011;59082;50.658;4.608;2023-05-07T11:03:28;4.25;;;2.30;;
71296;SDS011;59082;50.658;4.608;2023-05-07T11:06:10;5.33;;;3.00;;
71296;SDS011;59082;50.658;4.608;2023-05-07T11:11:16;4.03;;;2.65;;
71296;SDS011;59082;50.658;4.608;2023-05-07T11:13:43;4.47;;;3.00;;
71296;SDS011;59082;50.658;4.608;2023-05-07T11:16:25;4.75;;;2.47;;
71296;SDS011;59082;50.658;4.608;2023-05-07T11:18:53;6.10;;;3.20;;
71296;SDS011;59082;50.658;4.608;2023-05-07T11:24:00;7.13;;;3.15;;
71296;SDS011;59082;50.658;4.608;2023-05-07T11:26:26;4.82;;;2.72;;
71296;SDS011;59082;50.658;4.608;2023-05-07T11:28:52;6.22;;;3.33;;
71296;SDS011;59082;50.658;4.608;2023-05-07T11:31:22;3.30;;;2.53;;
71296;SDS011;59082;50.658;4.608;2023-05-07T11:33:48;4.05;;;2.78;;
71296;SDS011;59082;50.658;4.608;2023-05-07T11:36:13;6.57;;;3.60;;
71296;SDS011;59082;50.658;4.608;2023-05-07T11:38:39;3.13;;;2.33;;
71296;SDS011;59082;50.658;4.608;2023-05-07T11:41:04;4.37;;;2.50;;
71296;SDS011;59082;50.658;4.608;2023-05-07T11:43:30;5.97;;;3.00;;
71296;SDS011;59082;50.658;4.608;2023-05-07T11:46:04;4.00;;;3.17;;
71296;SDS011;59082;50.658;4.608;2023-05-07T11:48:30;5.47;;;3.28;;
71296;SDS011;59082;50.658;4.608;2023-05-07T11:53:24;2.03;;;1.63;;
71296;SDS011;59082;50.658;4.608;2023-05-07T11:55:53;2.50;;;1.40;;
71296;SDS011;59082;50.658;4.608;2023-05-07T11:58:20;2.55;;;1.98;;
71296;SDS011;59082;50.658;4.608;2023-05-07T12:00:50;3.30;;;1.15;;
71296;SDS011;59082;50.658;4.608;2023-05-07T12:03:15;3.08;;;2.00;;
71296;SDS011;59082;50.658;4.608;2023-05-07T12:05:40;3.53;;;1.20;;
71296;SDS011;59082;50.658;4.608;2023-05-07T12:08:07;3.83;;;1.30;;
71296;SDS011;59082;50.658;4.608;2023-05-07T12:10:32;4.17;;;1.40;;
71296;SDS011;59082;50.658;4.608;2023-05-07T12:12:58;3.17;;;1.50;;
71296;SDS011;59082;50.658;4.608;2023-05-07T12:15:23;4.27;;;1.50;;
71296;SDS011;59082;50.658;4.608;2023-05-07T12:17:48;3.87;;;2.23;;
71296;SDS011;59082;50.658;4.608;2023-05-07T12:20:14;3.63;;;2.00;;
71296;SDS011;59082;50.658;4.608;2023-05-07T12:22:40;3.13;;;1.27;;
71296;SDS011;59082;50.658;4.608;2023-05-07T12:25:06;3.20;;;1.70;;
71296;SDS011;59082;50.658;4.608;2023-05-07T12:27:31;2.40;;;1.10;;
71296;SDS011;59082;50.658;4.608;2023-05-07T12:29:57;2.70;;;1.33;;
71296;SDS011;59082;50.658;4.608;2023-05-07T12:32:23;2.40;;;1.13;;
71296;SDS011;59082;50.658;4.608;2023-05-07T12:34:49;6.30;;;1.53;;
71296;SDS011;59082;50.658;4.608;2023-05-07T12:37:15;2.40;;;1.42;;
71296;SDS011;59082;50.658;4.608;2023-05-07T12:40:02;4.18;;;1.45;;
71296;SDS011;59082;50.658;4.608;2023-05-07T12:42:28;6.13;;;1.60;;
71296;SDS011;59082;50.658;4.608;2023-05-07T12:44:57;4.03;;;2.30;;
71296;SDS011;59082;50.658;4.608;2023-05-07T12:47:23;6.03;;;1.60;;
71296;SDS011;59082;50.658;4.608;2023-05-07T12:49:48;5.63;;;1.97;;
71296;SDS011;59082;50.658;4.608;2023-05-07T12:52:13;4.10;;;1.67;;
71296;SDS011;59082;50.658;4.608;2023-05-07T12:54:39;2.00;;;1.57;;
71296;SDS011;59082;50.658;4.608;2023-05-07T12:57:05;3.15;;;1.50;;
71296;SDS011;59082;50.658;4.608;2023-05-07T12:59:34;1.50;;;1.23;;
71296;SDS011;59082;50.658;4.608;2023-05-07T13:02:01;3.00;;;1.85;;
71296;SDS011;59082;50.658;4.608;2023-05-07T13:04:27;4.65;;;2.17;;
71296;SDS011;59082;50.658;4.608;2023-05-07T13:06:52;2.33;;;1.60;;
71296;SDS011;59082;50.658;4.608;2023-05-07T13:09:18;3.57;;;1.87;;
71296;SDS011;59082;50.658;4.608;2023-05-07T13:11:43;3.47;;;2.40;;
71296;SDS011;59082;50.658;4.608;2023-05-07T13:14:09;4.93;;;2.83;;
71296;SDS011;59082;50.658;4.608;2023-05-07T13:16:34;4.80;;;2.03;;
71296;SDS011;59082;50.658;4.608;2023-05-07T13:19:04;2.95;;;2.30;;
71296;SDS011;59082;50.658;4.608;2023-05-07T13:21:30;4.03;;;2.60;;
71296;SDS011;59082;50.658;4.608;2023-05-07T13:23:58;3.53;;;2.50;;
71296;SDS011;59082;50.658;4.608;2023-05-07T13:26:23;3.50;;;2.63;;
71296;SDS011;59082;50.658;4.608;2023-05-07T13:28:49;6.30;;;3.25;;
71296;SDS011;59082;50.658;4.608;2023-05-07T13:31:15;3.70;;;3.20;;
71296;SDS011;59082;50.658;4.608;2023-05-07T13:33:40;4.97;;;3.63;;
71296;SDS011;59082;50.658;4.608;2023-05-07T13:36:06;4.50;;;3.95;;
71296;SDS011;59082;50.658;4.608;2023-05-07T13:38:31;4.73;;;3.67;;
71296;SDS011;59082;50.658;4.608;2023-05-07T13:40:57;6.37;;;4.30;;
71296;SDS011;59082;50.658;4.608;2023-05-07T13:43:22;4.23;;;3.63;;
71296;SDS011;59082;50.658;4.608;2023-05-07T13:45:48;7.50;;;4.10;;
71296;SDS011;59082;50.658;4.608;2023-05-07T13:48:14;5.30;;;4.43;;
71296;SDS011;59082;50.658;4.608;2023-05-07T13:50:39;6.17;;;4.70;;
71296;SDS011;59082;50.658;4.608;2023-05-07T13:53:04;4.90;;;4.47;;
71296;SDS011;59082;50.658;4.608;2023-05-07T13:55:30;6.03;;;5.43;;
71296;SDS011;59082;50.658;4.608;2023-05-07T13:58:00;6.93;;;5.37;;
71296;SDS011;59082;50.658;4.608;2023-05-07T14:00:27;7.00;;;4.50;;
71296;SDS011;59082;50.658;4.608;2023-05-07T14:02:53;7.90;;;5.60;;
71296;SDS011;59082;50.658;4.608;2023-05-07T14:05:19;6.55;;;5.25;;
71296;SDS011;59082;50.658;4.608;2023-05-07T14:07:44;7.60;;;6.23;;
71296;SDS011;59082;50.658;4.608;2023-05-07T14:10:10;6.60;;;5.82;;
71296;SDS011;59082;50.658;4.608;2023-05-07T14:12:36;7.07;;;6.27;;
71296;SDS011;59082;50.658;4.608;2023-05-07T14:15:01;6.70;;;6.00;;
71296;SDS011;59082;50.658;4.608;2023-05-07T14:17:27;7.20;;;6.43;;
71296;SDS011;59082;50.658;4.608;2023-05-07T14:19:52;5.93;;;5.00;;
71296;SDS011;59082;50.658;4.608;2023-05-07T14:22:21;5.25;;;4.60;;
71296;SDS011;59082;50.658;4.608;2023-05-07T14:24:47;6.18;;;5.28;;
71296;SDS011;59082;50.658;4.608;2023-05-07T14:27:13;6.70;;;5.20;;
71296;SDS011;59082;50.658;4.608;2023-05-07T14:29:38;5.83;;;5.00;;
71296;SDS011;59082;50.658;4.608;2023-05-07T14:32:03;7.27;;;5.27;;
71296;SDS011;59082;50.658;4.608;2023-05-07T14:34:29;5.97;;;4.50;;
71296;SDS011;59082;50.658;4.608;2023-05-07T14:36:57;6.05;;;4.97;;
71296;SDS011;59082;50.658;4.608;2023-05-07T14:39:23;6.63;;;5.37;;
71296;SDS011;59082;50.658;4.608;2023-05-07T14:41:48;6.43;;;5.07;;
71296;SDS011;59082;50.658;4.608;2023-05-07T14:44:14;7.77;;;5.17;;
71296;SDS011;59082;50.658;4.608;2023-05-07T14:46:39;6.07;;;5.50;;
71296;SDS011;59082;50.658;4.608;2023-05-07T14:49:05;6.63;;;5.23;;
71296;SDS011;59082;50.658;4.608;2023-05-07T14:51:32;6.82;;;5.72;;
71296;SDS011;59082;50.658;4.608;2023-05-07T14:53:58;7.93;;;6.00;;
71296;SDS011;59082;50.658;4.608;2023-05-07T14:56:23;7.68;;;5.20;;
71296;SDS011;59082;50.658;4.608;2023-05-07T14:58:48;6.70;;;5.20;;